createdAt,value
2019-06-08T00:00:16.669Z,1.50
2019-06-08T00:02:44.081Z,1.62
2019-06-08T00:05:12.560Z,1.37
2019-06-08T00:07:39.976Z,1.85
2019-06-08T00:10:07.262Z,1.98
2019-06-08T00:12:34.563Z,1.35
2019-06-08T00:15:01.892Z,1.72
2019-06-08T00:17:38.077Z,1.70
2019-06-08T00:19:58.124Z,1.40
2019-06-08T00:22:25.443Z,1.82
2019-06-08T00:24:52.729Z,1.45
2019-06-08T00:27:21.436Z,1.30
2019-06-08T00:29:49.082Z,1.12
2019-06-08T00:32:16.367Z,1.30
2019-06-08T00:34:43.690Z,1.25
2019-06-08T00:37:11.078Z,1.80
2019-06-08T00:39:38.290Z,1.92
2019-06-08T00:42:05.590Z,1.70
2019-06-08T00:44:32.888Z,2.00
2019-06-08T00:47:00.181Z,1.72
2019-06-08T00:49:27.480Z,1.72
2019-06-08T00:51:54.786Z,1.70
2019-06-08T00:54:23.426Z,1.75
2019-06-08T00:56:50.925Z,2.20
2019-06-08T00:59:18.243Z,2.10
2019-06-08T01:01:45.535Z,1.98
2019-06-08T01:04:12.900Z,2.45
2019-06-08T01:06:40.181Z,2.30
2019-06-08T01:09:07.611Z,1.92
2019-06-08T01:11:34.931Z,1.50
2019-06-08T01:14:02.212Z,1.82
2019-06-08T01:16:29.507Z,2.17
2019-06-08T01:18:57.092Z,1.90
2019-06-08T01:21:25.559Z,1.67
2019-06-08T01:23:52.884Z,1.55
2019-06-08T01:26:20.185Z,1.57
2019-06-08T01:28:47.479Z,1.27
2019-06-08T01:31:14.854Z,1.40
2019-06-08T01:33:42.119Z,1.50
2019-06-08T01:36:09.465Z,1.42
2019-06-08T01:38:36.753Z,1.85
2019-06-08T01:41:04.037Z,1.70
2019-06-08T01:43:31.813Z,1.92
2019-06-08T01:45:59.145Z,1.67
2019-06-08T01:48:26.438Z,1.72
2019-06-08T01:50:53.759Z,1.72
2019-06-08T01:53:21.051Z,1.80
2019-06-08T01:55:48.357Z,1.50
2019-06-08T01:58:15.678Z,1.50
2019-06-08T02:00:42.962Z,2.00
2019-06-08T02:03:10.249Z,2.20
2019-06-08T02:05:37.631Z,2.37
2019-06-08T02:08:04.911Z,2.35
2019-06-08T02:10:32.892Z,2.60
2019-06-08T02:13:00.280Z,2.30
2019-06-08T02:15:29.211Z,2.80
2019-06-08T02:17:56.451Z,2.58
2019-06-08T02:20:23.723Z,2.83
2019-06-08T02:22:51.080Z,2.35
2019-06-08T02:25:20.017Z,2.45
2019-06-08T02:27:47.342Z,2.40
2019-06-08T02:30:15.216Z,2.52
2019-06-08T02:32:42.501Z,2.20
2019-06-08T02:35:09.860Z,2.45
2019-06-08T02:37:38.292Z,1.75
2019-06-08T02:40:06.113Z,1.57
2019-06-08T02:42:35.266Z,1.80
2019-06-08T02:45:02.356Z,1.70
2019-06-08T02:47:30.430Z,2.17
2019-06-08T02:49:58.259Z,2.30
2019-06-08T02:52:25.556Z,2.30
2019-06-08T02:54:52.848Z,2.08
2019-06-08T02:57:20.331Z,2.92
2019-06-08T02:59:47.618Z,2.12
2019-06-08T03:02:14.915Z,1.90
2019-06-08T03:04:42.220Z,2.35
2019-06-08T03:07:09.770Z,2.22
2019-06-08T03:09:38.531Z,2.17
2019-06-08T03:12:06.067Z,2.00
2019-06-08T03:14:35.457Z,2.10
2019-06-08T03:17:02.483Z,2.55
2019-06-08T03:19:31.242Z,2.58
2019-06-08T03:21:58.879Z,2.45
2019-06-08T03:24:26.194Z,2.02
2019-06-08T03:26:53.482Z,2.30
2019-06-08T03:29:20.760Z,2.10
2019-06-08T03:31:55.685Z,2.50
2019-06-08T03:34:17.006Z,1.60
2019-06-08T03:36:54.414Z,2.50
2019-06-08T03:39:13.256Z,1.70
2019-06-08T03:41:42.513Z,1.75
2019-06-08T03:44:09.495Z,2.15
2019-06-08T03:46:38.665Z,2.00
2019-06-08T03:49:05.742Z,1.90
2019-06-08T03:51:36.028Z,1.85
2019-06-08T03:54:01.992Z,1.85
2019-06-08T03:56:29.283Z,1.50
2019-06-08T03:58:56.799Z,2.27
2019-06-08T04:01:24.123Z,1.85
2019-06-08T04:03:51.397Z,1.90
2019-06-08T04:06:18.709Z,1.50
2019-06-08T04:08:47.401Z,1.52
2019-06-08T04:11:14.970Z,1.50
2019-06-08T04:13:44.366Z,1.90
2019-06-08T04:16:11.236Z,1.67
2019-06-08T04:18:40.180Z,1.90
2019-06-08T04:21:07.491Z,1.72
2019-06-08T04:23:34.769Z,2.10
2019-06-08T04:26:02.067Z,1.87
2019-06-08T04:28:29.388Z,2.02
2019-06-08T04:30:56.687Z,1.92
2019-06-08T04:33:23.982Z,1.70
2019-06-08T04:35:51.274Z,2.02
2019-06-08T04:38:18.558Z,1.50
2019-06-08T04:40:47.728Z,2.35
2019-06-08T04:43:14.805Z,1.75
2019-06-08T04:45:43.555Z,1.62
2019-06-08T04:48:11.059Z,2.20
2019-06-08T04:50:38.729Z,2.30
2019-06-08T04:53:06.550Z,1.98
2019-06-08T04:55:33.915Z,2.72
2019-06-08T04:58:01.248Z,2.02
2019-06-08T05:00:31.281Z,1.70
2019-06-08T05:02:57.488Z,1.40
2019-06-08T05:05:24.822Z,1.90
2019-06-08T05:07:52.129Z,2.10
2019-06-08T05:10:19.414Z,1.98
2019-06-08T05:12:47.771Z,2.10
2019-06-08T05:15:16.378Z,1.82
2019-06-08T05:17:45.261Z,2.00
2019-06-08T05:20:12.691Z,1.72
2019-06-08T05:22:41.316Z,1.75
2019-06-08T05:25:08.765Z,1.70
2019-06-08T05:27:36.108Z,1.55
2019-06-08T05:30:08.367Z,2.12
2019-06-08T05:32:33.112Z,2.05
2019-06-08T05:35:00.400Z,2.35
2019-06-08T05:37:27.701Z,1.70
2019-06-08T05:39:55.007Z,1.40
2019-06-08T05:42:22.295Z,1.70
2019-06-08T05:44:50.266Z,1.70
2019-06-08T05:47:17.741Z,1.70
2019-06-08T05:49:45.777Z,1.77
2019-06-08T05:52:13.114Z,1.62
2019-06-08T05:54:41.729Z,1.60
2019-06-08T05:57:09.118Z,1.57
2019-06-08T05:59:36.432Z,1.70
2019-06-08T06:02:03.749Z,1.35
2019-06-08T06:04:31.033Z,1.30
2019-06-08T06:06:58.327Z,1.57
2019-06-08T06:09:25.640Z,1.85
2019-06-08T06:11:52.945Z,1.87
2019-06-08T06:14:20.229Z,1.50
2019-06-08T06:16:47.608Z,1.62
2019-06-08T06:19:14.899Z,1.77
2019-06-08T06:21:43.034Z,1.70
2019-06-08T06:24:10.390Z,1.50
2019-06-08T06:26:37.710Z,1.70
2019-06-08T06:29:05.022Z,1.60
2019-06-08T06:31:32.308Z,1.22
2019-06-08T06:33:59.592Z,1.20
2019-06-08T06:36:26.877Z,1.40
2019-06-08T06:38:54.194Z,1.20
2019-06-08T06:41:21.488Z,1.40
2019-06-08T06:43:50.322Z,1.25
2019-06-08T06:46:17.799Z,1.90
2019-06-08T06:48:46.122Z,1.65
2019-06-08T06:51:25.830Z,1.40
2019-06-08T06:53:42.786Z,1.60
2019-06-08T06:56:10.125Z,1.87
2019-06-08T06:58:37.430Z,1.72
2019-06-08T07:01:05.120Z,1.50
2019-06-08T07:03:32.426Z,1.30
2019-06-08T07:05:59.748Z,1.50
2019-06-08T07:08:27.033Z,1.60
2019-06-08T07:10:55.203Z,1.70
2019-06-08T07:13:22.694Z,1.40
2019-06-08T07:15:54.133Z,1.57
2019-06-08T07:18:19.064Z,1.60
2019-06-08T07:20:46.349Z,1.22
2019-06-08T07:23:13.726Z,1.10
2019-06-08T07:25:41.034Z,1.50
2019-06-08T07:28:08.313Z,1.45
2019-06-08T07:30:35.642Z,1.37
2019-06-08T07:33:02.933Z,1.10
2019-06-08T07:35:30.289Z,1.10
2019-06-08T07:37:57.606Z,1.30
2019-06-08T07:40:24.888Z,1.20
2019-06-08T07:42:53.361Z,1.20
2019-06-08T07:45:21.162Z,1.30
2019-06-08T07:47:48.446Z,1.30
2019-06-08T07:50:15.733Z,1.40
2019-06-08T07:52:43.047Z,1.27
2019-06-08T07:55:10.346Z,1.85
2019-06-08T07:57:37.631Z,1.35
2019-06-08T08:00:09.603Z,1.30
2019-06-08T08:02:35.066Z,1.30
2019-06-08T08:05:02.352Z,0.90
2019-06-08T08:07:29.632Z,1.30
2019-06-08T08:09:57.124Z,1.22
2019-06-08T08:12:24.453Z,1.40
2019-06-08T08:14:53.175Z,0.90
2019-06-08T08:17:20.642Z,1.30
2019-06-08T08:19:48.981Z,1.15
2019-06-08T08:22:25.072Z,1.37
2019-06-08T08:24:48.167Z,1.00
2019-06-08T08:27:14.271Z,1.30
2019-06-08T08:29:41.585Z,1.05
2019-06-08T08:32:09.964Z,1.20
2019-06-08T08:34:38.186Z,1.35
2019-06-08T08:37:09.257Z,1.30
2019-06-08T08:39:34.607Z,1.10
2019-06-08T08:42:04.832Z,1.50
2019-06-08T08:44:30.843Z,1.10
2019-06-08T08:47:00.553Z,1.30
2019-06-08T08:49:28.078Z,1.02
2019-06-08T08:51:56.176Z,1.20
2019-06-08T08:54:24.337Z,1.35
2019-06-08T08:56:54.939Z,0.90
2019-06-08T08:59:20.591Z,0.80
2019-06-08T09:01:48.255Z,1.50
2019-06-08T09:04:18.375Z,1.20
2019-06-08T09:06:44.621Z,1.30
2019-06-08T09:09:11.932Z,1.60
2019-06-08T09:11:41.320Z,1.75
2019-06-08T09:14:13.747Z,1.07
2019-06-08T09:16:38.365Z,1.00
2019-06-08T09:19:08.289Z,1.15
2019-06-08T09:21:34.665Z,1.40
2019-06-08T09:24:03.836Z,1.17
2019-06-08T09:26:31.416Z,1.00
2019-06-08T09:29:01.083Z,1.22
2019-06-08T09:31:30.827Z,1.30
2019-06-08T09:34:06.740Z,1.35
2019-06-08T09:36:28.487Z,1.32
2019-06-08T09:38:58.840Z,0.98
2019-06-08T09:41:23.642Z,1.35
2019-06-08T09:43:50.963Z,1.22
2019-06-08T09:46:18.281Z,1.05
2019-06-08T09:48:45.650Z,1.10
2019-06-08T09:51:12.931Z,1.00
2019-06-08T09:53:41.563Z,0.80
2019-06-08T09:56:09.842Z,1.10
2019-06-08T09:58:39.064Z,1.20
2019-06-08T10:01:11.282Z,1.15
2019-06-08T10:03:35.328Z,1.10
2019-06-08T10:06:06.861Z,1.57
2019-06-08T10:08:31.538Z,1.15
2019-06-08T10:11:01.397Z,1.50
2019-06-08T10:13:28.105Z,1.12
2019-06-08T10:16:00.016Z,1.27
2019-06-08T10:18:28.332Z,1.00
2019-06-08T10:20:54.757Z,1.20
2019-06-08T10:23:30.902Z,1.65
2019-06-08T10:25:51.055Z,1.10
2019-06-08T10:28:21.460Z,1.15
2019-06-08T10:30:48.504Z,1.35
2019-06-08T10:33:18.286Z,1.75
2019-06-08T10:35:44.957Z,1.22
2019-06-08T10:38:12.302Z,1.10
2019-06-08T10:40:59.379Z,1.37
2019-06-08T10:43:25.187Z,1.25
2019-06-08T10:45:52.464Z,1.05
2019-06-08T10:48:19.855Z,0.90
2019-06-08T10:50:47.503Z,1.37
2019-06-08T10:53:16.677Z,1.30
2019-06-08T10:55:43.742Z,1.45
2019-06-08T10:58:11.458Z,1.50
2019-06-08T11:00:39.269Z,1.20
2019-06-08T11:03:09.719Z,0.80
2019-06-08T11:05:36.246Z,1.10
2019-06-08T11:08:04.580Z,1.17
2019-06-08T11:10:32.956Z,1.30
2019-06-08T11:13:05.253Z,1.90
2019-06-08T11:15:30.768Z,2.65
2019-06-08T11:18:02.348Z,1.10
2019-06-08T11:20:30.189Z,2.55
2019-06-08T11:22:58.337Z,1.60
2019-06-08T11:25:27.990Z,1.30
2019-06-08T11:27:55.147Z,1.20
2019-06-08T11:30:26.785Z,1.00
2019-06-08T11:32:51.400Z,1.10
2019-06-08T11:35:18.702Z,1.25
2019-06-08T11:37:48.691Z,1.17
2019-06-08T11:40:14.922Z,2.25
2019-06-08T11:42:42.243Z,0.60
2019-06-08T11:45:12.484Z,0.75
2019-06-08T11:47:39.111Z,0.62
2019-06-08T11:50:11.687Z,0.75
2019-06-08T11:52:38.245Z,0.40
2019-06-08T11:55:07.493Z,0.90
2019-06-08T11:57:37.315Z,0.68
2019-06-08T12:00:18.303Z,0.60
2019-06-08T12:02:38.328Z,0.90
2019-06-08T12:05:08.692Z,0.62
2019-06-08T12:07:35.342Z,0.55
2019-06-08T12:10:02.987Z,0.85
2019-06-08T12:12:30.980Z,0.80
2019-06-08T12:14:58.374Z,0.57
2019-06-08T12:17:27.584Z,0.93
2019-06-08T12:19:54.726Z,0.72
2019-06-08T12:22:22.052Z,0.60
2019-06-08T12:24:49.330Z,1.00
2019-06-08T12:27:26.893Z,0.60
2019-06-08T12:29:45.583Z,0.50
2019-06-08T12:32:14.320Z,2.80
2019-06-08T12:34:41.833Z,1.60
2019-06-08T12:37:15.618Z,4.40
2019-06-08T12:39:38.740Z,0.50
2019-06-08T12:42:13.995Z,0.50
2019-06-08T12:44:35.118Z,1.00
2019-06-08T12:47:02.439Z,0.40
2019-06-08T12:49:29.722Z,0.40
2019-06-08T12:51:58.122Z,0.23
2019-06-08T12:54:28.269Z,0.67
2019-06-08T12:56:54.776Z,0.43
2019-06-08T12:59:23.118Z,0.30
2019-06-08T13:01:50.507Z,0.40
2019-06-08T13:04:21.279Z,0.53
2019-06-08T13:06:48.344Z,0.40
2019-06-08T13:09:16.702Z,0.50
2019-06-08T13:11:44.741Z,0.43
2019-06-08T13:14:12.982Z,0.50
2019-06-08T13:16:40.659Z,0.85
2019-06-08T13:19:09.202Z,0.40
2019-06-08T13:21:38.432Z,3.70
2019-06-08T13:24:08.370Z,0.37
2019-06-08T13:26:34.903Z,0.60
2019-06-08T13:29:02.194Z,0.57
2019-06-08T13:31:29.477Z,0.30
2019-06-08T13:33:58.596Z,0.30
2019-06-08T13:36:27.189Z,0.57
2019-06-08T13:38:54.726Z,0.57
2019-06-08T13:41:26.238Z,0.37
2019-06-08T13:43:51.035Z,0.40
2019-06-08T13:46:20.700Z,0.30
2019-06-08T13:48:48.201Z,3.37
2019-06-08T13:51:18.943Z,0.60
2019-06-08T13:53:44.433Z,0.43
2019-06-08T13:56:12.784Z,7.57
2019-06-08T13:58:40.119Z,0.70
2019-06-08T14:01:09.997Z,1.33
2019-06-08T14:03:36.389Z,0.60
2019-06-08T14:06:03.759Z,0.30
2019-06-08T14:08:33.068Z,1.20
2019-06-08T14:11:00.946Z,0.40
2019-06-08T14:13:34.081Z,0.50
2019-06-08T14:15:58.588Z,0.43
2019-06-08T14:18:30.006Z,2.60
2019-06-08T14:20:55.164Z,0.30
2019-06-08T14:23:23.152Z,0.60
2019-06-08T14:25:56.651Z,2.83
2019-06-08T14:28:21.506Z,0.57
2019-06-08T14:30:49.503Z,1.47
2019-06-08T14:33:23.033Z,0.30
2019-06-08T14:35:45.719Z,0.60
2019-06-08T14:38:13.034Z,0.40
2019-06-08T14:40:40.322Z,0.47
2019-06-08T14:43:10.496Z,0.50
2019-06-08T14:45:37.768Z,0.60
2019-06-08T14:48:05.254Z,0.70
2019-06-08T14:50:32.535Z,0.40
2019-06-08T14:52:59.849Z,0.30
2019-06-08T14:55:32.008Z,0.57
2019-06-08T14:57:58.003Z,0.70
2019-06-08T15:00:25.685Z,0.43
2019-06-08T15:02:53.024Z,0.70
2019-06-08T15:05:21.440Z,0.33
2019-06-08T15:07:48.927Z,0.30
2019-06-08T15:10:18.201Z,0.20
2019-06-08T15:12:45.234Z,0.67
2019-06-08T15:15:12.465Z,0.60
2019-06-08T15:17:39.746Z,0.57
2019-06-08T15:20:08.817Z,0.50
2019-06-08T15:22:36.011Z,0.50
2019-06-08T15:25:04.370Z,0.30
2019-06-08T15:27:33.335Z,0.50
2019-06-08T15:30:00.606Z,0.50
2019-06-08T15:32:32.186Z,0.30
2019-06-08T15:34:57.726Z,0.33
2019-06-08T15:37:25.275Z,0.73
2019-06-08T15:39:54.090Z,0.50
2019-06-08T15:42:21.981Z,0.30
2019-06-08T15:44:49.390Z,0.40
2019-06-08T15:47:17.822Z,0.30
2019-06-08T15:49:45.520Z,0.53
2019-06-08T15:52:12.808Z,0.40
2019-06-08T15:54:41.011Z,0.30
2019-06-08T15:57:08.512Z,0.53
2019-06-08T15:59:40.791Z,0.40
2019-06-08T16:02:04.744Z,0.40
2019-06-08T16:04:32.162Z,0.33
2019-06-08T16:06:59.467Z,0.30
2019-06-08T16:09:27.976Z,0.63
2019-06-08T16:11:55.371Z,0.37
2019-06-08T16:14:22.678Z,0.47
2019-06-08T16:16:49.964Z,0.40
2019-06-08T16:19:17.250Z,0.40
2019-06-08T16:21:44.574Z,0.77
2019-06-08T16:24:11.865Z,0.53
2019-06-08T16:26:52.325Z,0.63
2019-06-08T16:29:08.096Z,0.40
2019-06-08T16:31:35.469Z,0.40
2019-06-08T16:34:03.287Z,0.50
2019-06-08T16:36:31.501Z,0.30
2019-06-08T16:38:58.778Z,0.50
2019-06-08T16:41:26.058Z,0.30
2019-06-08T16:43:53.378Z,0.60
2019-06-08T16:46:20.672Z,0.30
2019-06-08T16:48:47.973Z,0.67
2019-06-08T16:51:15.252Z,0.40
2019-06-08T16:53:42.574Z,0.93
2019-06-08T16:56:09.858Z,0.40
2019-06-08T16:58:38.256Z,0.90
2019-06-08T17:01:05.883Z,0.50
2019-06-08T17:03:33.179Z,0.70
2019-06-08T17:06:00.489Z,0.50
2019-06-08T17:08:27.798Z,0.30
2019-06-08T17:10:55.087Z,0.75
2019-06-08T17:13:22.407Z,0.78
2019-06-08T17:15:49.704Z,0.93
2019-06-08T17:18:16.994Z,0.60
2019-06-08T17:20:44.311Z,0.60
2019-06-08T17:23:11.673Z,0.85
2019-06-08T17:25:38.999Z,0.60
2019-06-08T17:28:06.287Z,1.00
2019-06-08T17:30:34.633Z,0.65
2019-06-08T17:33:02.724Z,0.70
2019-06-08T17:35:31.323Z,0.93
2019-06-08T17:37:58.713Z,0.98
2019-06-08T17:40:26.024Z,0.70
2019-06-08T17:42:53.332Z,0.80
2019-06-08T17:45:20.626Z,1.00
2019-06-08T17:47:47.905Z,0.50
2019-06-08T17:50:15.231Z,0.85
2019-06-08T17:52:43.024Z,0.95
2019-06-08T17:55:10.505Z,1.30
2019-06-08T17:57:48.527Z,0.78
2019-06-08T18:00:07.642Z,0.90
2019-06-08T18:02:36.196Z,0.93
2019-06-08T18:05:06.926Z,1.00
2019-06-08T18:07:33.774Z,1.17
2019-06-08T18:10:01.085Z,0.75
2019-06-08T18:12:28.366Z,0.80
2019-06-08T18:14:57.900Z,1.20
2019-06-08T18:17:24.609Z,0.80
2019-06-08T18:19:51.889Z,0.90
2019-06-08T18:22:19.186Z,1.05
2019-06-08T18:24:47.881Z,1.17
2019-06-08T18:27:17.559Z,1.20
2019-06-08T18:29:45.523Z,0.88
2019-06-08T18:32:13.205Z,0.80
2019-06-08T18:34:41.786Z,0.85
2019-06-08T18:37:09.449Z,1.10
2019-06-08T18:39:40.074Z,1.00
2019-06-08T18:42:08.065Z,1.10
2019-06-08T18:44:34.950Z,1.15
2019-06-08T18:47:02.298Z,1.02
2019-06-08T18:49:29.668Z,0.93
2019-06-08T18:51:58.225Z,0.80
2019-06-08T18:54:27.810Z,1.00
2019-06-08T18:56:54.682Z,1.10
2019-06-08T18:59:21.956Z,0.90
2019-06-08T19:01:49.857Z,1.10
2019-06-08T19:04:17.761Z,0.85
2019-06-08T19:06:45.327Z,1.52
2019-06-08T19:09:12.613Z,0.85
2019-06-08T19:11:40.960Z,0.88
2019-06-08T19:14:09.303Z,1.20
2019-06-08T19:16:40.886Z,1.35
2019-06-08T19:19:07.413Z,1.10
2019-06-08T19:21:34.842Z,1.30
2019-06-08T19:24:02.141Z,1.32
2019-06-08T19:26:29.430Z,1.47
2019-06-08T19:28:57.811Z,1.32
2019-06-08T19:31:27.625Z,1.02
2019-06-08T19:33:54.688Z,1.10
2019-06-08T19:36:22.005Z,1.32
2019-06-08T19:38:54.519Z,1.50
2019-06-08T19:41:18.326Z,1.62
2019-06-08T19:43:53.196Z,1.60
2019-06-08T19:46:14.544Z,1.40
2019-06-08T19:48:44.024Z,2.47
2019-06-08T19:51:10.786Z,2.05
2019-06-08T19:53:44.003Z,1.45
2019-06-08T19:56:07.894Z,1.40
2019-06-08T19:58:50.569Z,1.75
2019-06-08T20:01:07.311Z,1.82
2019-06-08T20:03:34.238Z,2.05
2019-06-08T20:06:01.540Z,2.15
2019-06-08T20:08:29.439Z,1.80
2019-06-08T20:10:57.421Z,2.17
2019-06-08T20:13:24.916Z,2.08
2019-06-08T20:15:57.153Z,1.60
2019-06-08T20:18:21.158Z,1.65
2019-06-08T20:20:50.786Z,1.85
2019-06-08T20:23:18.098Z,5.00
2019-06-08T20:25:49.548Z,4.45
2019-06-08T20:28:17.309Z,3.62
2019-06-08T20:30:44.344Z,2.80
2019-06-08T20:33:11.663Z,2.35
2019-06-08T20:35:39.099Z,2.40
2019-06-08T20:38:08.271Z,2.55
2019-06-08T20:40:35.319Z,1.95
2019-06-08T20:43:02.686Z,1.90
2019-06-08T20:45:29.991Z,2.50
2019-06-08T20:47:58.425Z,2.65
2019-06-08T20:50:27.135Z,2.00
2019-06-08T20:52:54.591Z,3.17
2019-06-08T20:55:21.883Z,3.10
2019-06-08T20:57:49.767Z,3.27
2019-06-08T21:00:18.291Z,2.85
2019-06-08T21:02:46.441Z,3.02
2019-06-08T21:05:14.506Z,2.27
2019-06-08T21:07:41.832Z,2.30
2019-06-08T21:10:09.154Z,3.33
2019-06-08T21:12:37.885Z,3.20
2019-06-08T21:15:07.050Z,2.92
2019-06-08T21:17:34.557Z,2.70
2019-06-08T21:20:01.922Z,2.40
2019-06-08T21:22:29.253Z,2.40
2019-06-08T21:24:59.707Z,3.02
2019-06-08T21:27:27.594Z,2.35
2019-06-08T21:30:02.168Z,2.42
2019-06-08T21:32:23.399Z,2.40
2019-06-08T21:34:52.157Z,2.42
2019-06-08T21:37:19.612Z,3.95
2019-06-08T21:39:51.395Z,2.45
2019-06-08T21:42:16.040Z,2.85
2019-06-08T21:44:43.321Z,2.35
2019-06-08T21:47:10.601Z,2.85
2019-06-08T21:49:38.406Z,2.40
2019-06-08T21:52:07.296Z,3.10
2019-06-08T21:54:34.805Z,2.45
2019-06-08T21:57:02.125Z,3.00
2019-06-08T21:59:29.434Z,3.15
2019-06-08T22:01:59.426Z,3.35
2019-06-08T22:04:27.676Z,3.60
2019-06-08T22:06:54.699Z,3.22
2019-06-08T22:09:22.062Z,2.90
2019-06-08T22:11:50.944Z,2.80
2019-06-08T22:14:18.327Z,3.42
2019-06-08T22:16:47.673Z,2.75
2019-06-08T22:19:14.594Z,3.40
2019-06-08T22:21:41.877Z,3.17
2019-06-08T22:24:09.207Z,3.05
2019-06-08T22:26:36.476Z,3.30
2019-06-08T22:29:03.817Z,3.40
2019-06-08T22:31:31.088Z,3.40
2019-06-08T22:34:00.493Z,3.33
2019-06-08T22:36:27.896Z,3.00
2019-06-08T22:38:57.502Z,3.50
2019-06-08T22:41:24.145Z,3.95
2019-06-08T22:43:53.451Z,3.65
2019-06-08T22:46:20.406Z,3.08
2019-06-08T22:48:47.892Z,3.83
2019-06-08T22:51:15.186Z,3.62
2019-06-08T22:53:42.512Z,3.83
2019-06-08T22:56:09.812Z,3.60
2019-06-08T22:58:37.322Z,3.50
2019-06-08T23:01:08.658Z,3.22
2019-06-08T23:03:34.145Z,3.40
2019-06-08T23:06:02.709Z,4.00
2019-06-08T23:08:30.426Z,3.62
2019-06-08T23:10:59.338Z,3.95
2019-06-08T23:13:28.438Z,2.85
2019-06-08T23:15:59.447Z,3.35
2019-06-08T23:18:24.593Z,2.83
2019-06-08T23:20:51.906Z,3.10
2019-06-08T23:23:19.180Z,4.10
2019-06-08T23:25:47.872Z,2.72
2019-06-08T23:28:17.891Z,2.90
2019-06-08T23:30:44.313Z,3.77
2019-06-08T23:33:11.924Z,4.08
2019-06-08T23:36:03.014Z,3.20
2019-06-08T23:38:09.615Z,3.75
2019-06-08T23:40:37.895Z,3.27
2019-06-08T23:43:05.931Z,3.55
2019-06-08T23:45:33.242Z,4.00
2019-06-08T23:48:01.091Z,3.95
2019-06-08T23:50:28.945Z,4.15
2019-06-08T23:52:56.275Z,3.60
2019-06-08T23:55:23.567Z,4.15
2019-06-08T23:57:50.854Z,3.92
